Latest Weather Observations for Montague Island

IDN60801

Issued at 3:52 pm EST Monday 26 September 2022 (issued every 10 minutes, with the page automatically refreshed every 10 minutes)

About weather observations | Map of weather stations | Latest weather observations for NSW | Other Formats
Station Details ID: 069017 Name: MONTAGUE ISLAND LIGHTHOUSE Lat: -36.25 Lon: 150.23 Height: 52.0 m
Data from the previous 72 hours. | See also: Recent months at Montague Island
Date/Time
EST
Temp
°C
App
Temp
°C
Dew
Point
°C
Rel
Hum
%
Delta-T
°C
Wind Press
QNH
hPa
Press
MSL
hPa
Rain since
9am
mm
Dir  Spd
km/h
Gust
km/h
Spd
kts
Gust
kts
26/03:30pm 17.6 13.7 10.7 64 3.7 ENE 22 28 12 15 1013.7 1013.6 0.0
26/03:00pm 17.4 13.9 10.8 65 3.5 ENE 20 24 11 13 1014.0 1013.9 0.0
26/02:30pm 17.8 14.6 11.8 68 3.3 ENE 20 24 11 13 1014.2 1014.1 0.0
26/02:00pm 18.0 15.0 12.0 68 3.3 ENE 19 24 10 13 1014.5 1014.4 0.0
26/01:30pm 17.6 14.7 12.3 71 2.9 E 19 20 10 11 1015.0 1014.9 0.0
26/01:00pm 17.5 15.8 12.4 72 2.8 SE 13 17 7 9 1015.6 1015.5 0.0
26/12:30pm 16.9 15.4 12.0 73 2.7 SE 11 13 6 7 1016.1 1016.0 0.0
26/12:00pm 16.5 15.6 11.4 72 2.8 SE 7 13 4 7 1016.5 1016.4 0.0
26/11:30am 16.6 15.8 11.1 70 3.0 SSE 6 9 3 5 1016.8 1016.7 0.0
26/11:00am 16.6 15.8 10.9 69 3.1 ESE 6 9 3 5 1017.1 1017.0 0.0
26/10:30am 17.1 16.2 11.2 68 3.2 S 7 13 4 7 1017.3 1017.2 0.0
26/10:00am 16.9 15.0 10.5 66 3.4 SW 11 15 6 8 1017.3 1017.2 0.0
26/09:30am 16.0 13.3 10.3 69 3.0 SW 15 19 8 10 1017.5 1017.4 0.0
26/09:00am 15.9 13.3 10.7 71 2.8 SW 15 19 8 10 1017.6 1017.5 0.0
26/08:30am 14.7 11.1 9.9 73 2.5 SW 19 22 10 12 1017.5 1017.4 0.0
26/08:00am 14.8 12.1 10.4 75 2.3 SW 15 19 8 10 1017.3 1017.2 0.0
26/07:30am 14.5 11.8 10.3 76 2.2 SW 15 19 8 10 1017.2 1017.1 0.0
26/07:00am 13.8 11.5 10.4 80 1.8 SW 13 17 7 9 1017.2 1017.1 0.0
26/06:30am 13.4 10.7 10.2 81 1.7 SW 15 17 8 9 1017.0 1016.9 0.0
26/06:00am 13.3 10.5 10.1 81 1.7 SW 15 17 8 9 1016.9 1016.8 0.0
26/05:30am 13.3 10.6 10.3 82 1.6 SW 15 19 8 10 1016.8 1016.7 0.0
26/05:00am 13.5 10.8 10.5 82 1.6 SW 15 20 8 11 1016.8 1016.7 0.0
26/04:30am 14.0 10.5 10.2 78 2.0 SSW 19 22 10 12 1016.8 1016.7 0.0
26/04:00am 14.0 10.3 10.2 78 2.0 SSW 20 26 11 14 1016.5 1016.4 0.0
26/03:30am 13.8 10.1 10.0 78 2.0 SSW 20 26 11 14 1016.4 1016.3 0.0
26/03:00am 13.8 10.1 9.6 76 2.2 SSW 19 24 10 13 1016.5 1016.4 0.0
26/02:30am 13.6 10.5 10.2 80 1.8 SSW 17 22 9 12 1016.7 1016.6 0.0
26/02:00am 13.8 11.1 10.4 80 1.8 SSW 15 20 8 11 1016.8 1016.7 0.0
26/01:30am 13.8 11.5 10.4 80 1.8 SSW 13 19 7 10 1017.0 1016.9 0.0
26/01:00am 13.6 10.9 10.4 81 1.7 SSW 15 20 8 11 1017.2 1017.1 0.0
26/12:30am 13.8 10.8 10.6 81 1.7 SW 17 20 9 11 1017.4 1017.3 0.0
26/12:00am 14.0 11.1 11.0 82 1.6 SW 17 22 9 12 1017.5 1017.4 0.0
 
Date/Time
EST
Temp
°C
App
Temp
°C
Dew
Point
°C
Rel
Hum
%
Delta-T
°C
Wind Press
QNH
hPa
Press
MSL
hPa
Rain since
9am
mm
Dir  Spd
km/h
Gust
km/h
Spd
kts
Gust
kts
25/11:30pm 13.8 11.3 11.0 83 1.5 SW 15 19 8 10 1017.6 1017.5 0.0
25/11:00pm 13.9 11.8 11.2 84 1.4 SW 13 17 7 9 1017.7 1017.6 0.0
25/10:30pm 14.0 11.2 11.3 84 1.4 SSW 17 22 9 12 1017.8 1017.7 0.0
25/10:00pm 13.9 10.6 11.6 86 1.2 SSW 20 26 11 14 1017.8 1017.7 0.0
25/09:30pm 14.3 10.7 11.8 85 1.3 SSW 22 28 12 15 1017.6 1017.5 0.0
25/09:00pm 15.0 10.7 12.0 82 1.6 SW 26 32 14 17 1017.6 1017.5 0.0
25/08:30pm 15.5 13.0 11.1 75 2.4 SW 15 24 8 13 1017.5 1017.4 0.0
25/08:00pm 15.4 13.5 10.6 73 2.5 S 11 17 6 9 1017.2 1017.1 0.0
25/07:30pm 15.2 13.2 10.2 72 2.6 S 11 15 6 8 1016.9 1016.8 0.0
25/07:00pm 15.2 13.2 10.0 71 2.7 SSE 11 15 6 8 1016.5 1016.4 0.0
25/06:30pm 15.1 12.5 9.5 69 2.9 SSE 13 15 7 8 1015.9 1015.8 0.0
25/06:00pm 15.1 12.4 9.0 67 3.1 SE 13 15 7 8 1015.4 1015.3 0.0
25/05:30pm 15.4 13.0 10.2 71 2.7 SE 13 17 7 9 1015.1 1015.0 0.0
25/05:00pm 15.5 12.7 10.1 70 2.8 ESE 15 19 8 10 1014.6 1014.5 0.0
25/04:30pm 15.6 12.2 9.3 66 3.3 ESE 17 20 9 11 1014.2 1014.1 0.0
25/04:00pm 15.8 12.5 9.7 67 3.2 ESE 17 20 9 11 1014.2 1014.1 0.0
25/03:30pm 15.8 11.7 8.8 63 3.6 ESE 20 24 11 13 1013.8 1013.7 0.0
25/03:00pm 16.1 12.2 8.6 61 3.8 ESE 19 22 10 12 1013.9 1013.8 0.0
25/02:30pm 16.4 12.5 8.6 60 4.0 ESE 19 20 10 11 1013.7 1013.6 0.0
25/02:00pm 16.4 12.4 6.8 53 4.7 ESE 17 20 9 11 1014.0 1013.9 0.0
25/01:30pm 16.7 12.4 7.1 53 4.8 ESE 19 22 10 12 1014.0 1013.9 0.0
25/01:00pm 16.9 13.5 7.8 55 4.6 ESE 15 19 8 10 1014.4 1014.3 0.0
25/12:30pm 17.0 13.9 8.9 59 4.2 ESE 15 17 8 9 1014.6 1014.5 0.0
25/12:00pm 16.8 14.6 9.5 62 3.8 E 11 15 6 8 1014.9 1014.8 0.0
25/11:30am 17.1 15.1 7.2 52 5.0 E 7 11 4 6 1015.0 1014.9 0.0
25/11:00am 16.9 15.1 7.3 53 4.8 E 6 9 3 5 1015.1 1015.0 0.0
25/10:30am 17.1 15.2 6.9 51 5.1 SSW 6 9 3 5 1015.5 1015.4 0.0
25/10:00am 16.8 15.0 8.0 56 4.5 SSW 7 9 4 5 1015.7 1015.6 0.0
25/09:30am 15.9 13.7 7.9 59 4.0 SSW 9 13 5 7 1015.7 1015.6 0.0
25/09:00am 15.6 12.1 7.4 58 4.1 SW 15 19 8 10 1015.5 1015.4 0.0
25/08:30am 14.8 12.8 8.5 66 3.2 W 9 11 5 6 1015.5 1015.4 0.0
25/08:00am 14.8 11.8 9.2 69 2.9 W 15 19 8 10 1015.5 1015.4 0.0
25/07:30am 13.9 8.9 8.1 68 2.9 SW 24 30 13 16 1015.2 1015.1 0.0
25/07:00am 13.1 8.3 7.3 68 2.8 SW 22 30 12 16 1014.9 1014.8 0.0
25/06:30am 12.5 8.1 7.2 70 2.6 SSW 20 28 11 15 1014.7 1014.6 0.0
25/06:00am 12.0 7.7 7.1 72 2.4 SW 19 24 10 13 1014.4 1014.3 0.0
25/05:30am 12.1 8.0 7.8 75 2.1 SSW 19 24 10 13 1014.2 1014.1 0.0
25/05:00am 12.1 8.1 8.4 78 1.8 SSW 19 22 10 12 1014.0 1013.9 0.0
25/04:30am 12.4 8.3 7.7 73 2.3 SSW 19 24 10 13 1013.8 1013.7 0.0
25/04:00am 12.5 8.1 7.2 70 2.6 SSW 20 26 11 14 1013.6 1013.5 0.0
25/03:30am 12.7 8.4 7.0 68 2.8 SSW 19 24 10 13 1013.8 1013.7 0.0
25/03:00am 12.7 8.8 7.2 69 2.7 SW 17 22 9 12 1013.8 1013.7 0.0
25/02:30am 12.8 9.6 8.3 74 2.2 SW 15 19 8 10 1013.5 1013.4 0.0
25/02:00am 13.1 9.4 8.0 71 2.5 SSW 17 19 9 10 1013.5 1013.4 0.0
25/01:30am 13.2 10.2 7.6 69 2.7 SSW 13 17 7 9 1013.7 1013.6 0.0
25/01:00am 13.2 9.7 7.4 68 2.8 SSW 15 20 8 11 1013.7 1013.6 0.0
25/12:30am 13.3 9.9 7.7 69 2.8 SSW 15 22 8 12 1013.6 1013.5 0.0
25/12:00am 13.6 9.4 7.6 67 3.0 SW 19 22 10 12 1013.7 1013.6 0.0
 
Date/Time
EST
Temp
°C
App
Temp
°C
Dew
Point
°C
Rel
Hum
%
Delta-T
°C
Wind Press
QNH
hPa
Press
MSL
hPa
Rain since
9am
mm
Dir  Spd
km/h
Gust
km/h
Spd
kts
Gust
kts
24/11:30pm 13.5 9.3 7.5 67 2.9 SW 19 22 10 12 1013.7 1013.6 0.0
24/11:00pm 13.2 9.6 8.3 72 2.4 SW 17 20 9 11 1013.7 1013.6 0.0
24/10:30pm 13.5 10.1 9.0 74 2.3 SW 17 19 9 10 1013.7 1013.6 0.0
24/10:00pm 13.6 10.5 8.7 72 2.5 SW 15 19 8 10 1013.7 1013.6 0.0
24/09:30pm 13.8 10.1 9.3 74 2.3 SW 19 24 10 13 1013.6 1013.5 0.0
24/09:00pm 14.4 10.3 10.0 75 2.3 SW 22 28 12 15 1013.4 1013.3 0.0
24/08:30pm 14.8 9.5 9.8 72 2.6 SSW 28 35 15 19 1013.2 1013.1 0.0
24/08:00pm 15.0 8.6 9.4 69 2.9 SSW 33 41 18 22 1013.1 1013.0 0.0
24/07:30pm 15.0 8.6 9.4 69 2.9 S 33 39 18 21 1012.5 1012.5 0.0
24/07:00pm 15.3 7.4 9.4 68 3.1 S 41 48 22 26 1011.8 1011.8 0.0
24/06:30pm 15.6 8.3 10.2 70 2.8 S 39 46 21 25 1011.2 1011.2 0.0
24/06:00pm 15.7 8.6 10.9 73 2.6 S 39 46 21 25 1011.0 1011.0 0.0
24/05:30pm 15.7 10.4 11.1 74 2.5 S 30 37 16 20 1010.8 1010.8 0.0
24/05:00pm 15.7 11.6 11.5 76 2.3 S 24 30 13 16 1010.3 1010.3 0.0
24/04:30pm 15.9 10.6 11.3 74 2.5 SSE 30 35 16 19 1009.9 1009.9 0.0
24/04:00pm 16.5 12.3 11.0 70 3.0 SSE 24 30 13 16 1009.6 1009.6 0.0
24/03:30pm 16.6 12.4 11.1 70 3.0 SSE 24 28 13 15 1009.3 1009.3 0.0
24/03:00pm 16.5 12.5 10.4 67 3.2 SSE 22 26 12 14 1009.2 1009.2 0.0
24/02:30pm 16.2 13.3 10.9 71 2.8 SSE 17 20 9 11 1009.2 1009.2 0.0
24/02:00pm 16.5 14.3 10.8 69 3.1 SSE 13 19 7 10 1009.2 1009.2 0.0
24/01:30pm 16.6 15.1 10.7 68 3.2 SSW 9 13 5 7 1009.3 1009.3 0.0
24/01:00pm 16.6 15.1 10.5 67 3.3 SW 9 13 5 7 1009.6 1009.6 0.0
24/12:30pm 16.6 15.7 10.5 67 3.2 SW 6 9 3 5 1009.7 1009.7 0.0
24/12:00pm 15.9 15.2 10.2 69 3.0 SW 4 6 2 3 1010.1 1010.1 0.0
24/11:30am 16.0 15.1 11.4 74 2.5 WSW 7 11 4 6 1010.4 1010.4 0.0
24/11:00am 15.2 13.6 11.4 78 2.0 SW 11 13 6 7 1010.7 1010.7 0.0
24/10:30am 14.7 11.8 10.9 78 2.0 SW 17 20 9 11 1011.1 1011.1 0.0
24/10:00am 14.2 9.4 10.4 78 2.0 SW 26 32 14 17 1011.1 1011.1 0.0
24/09:30am 14.0 8.9 10.6 80 1.8 SW 28 35 15 19 1011.1 1011.1 0.0
24/09:00am 13.5 9.0 9.9 79 1.9 SSW 24 32 13 17 1010.6 1010.6 1.2
24/08:30am 13.5 8.2 9.9 79 1.9 SW 28 37 15 20 1010.5 1010.5 1.2
24/08:00am 13.2 8.8 10.4 83 1.5 WSW 24 33 13 18 1010.8 1010.8 1.2
24/07:30am 13.0 9.6 11.4 90 0.8 WSW 20 26 11 14 1010.6 1010.6 1.2
24/07:00am 12.9 8.4 11.5 91 0.7 WSW 26 32 14 17 1010.6 1010.6 1.0
24/06:30am 12.9 8.4 11.3 90 0.8 WSW 26 33 14 18 1010.5 1010.5 1.0
24/06:00am 13.2 5.8 11.1 87 1.1 SW 41 48 22 26 1010.2 1010.2 0.8
24/05:30am 13.2 7.6 11.4 89 1.0 SSW 32 41 17 22 1009.7 1009.7 0.8
24/05:00am 13.0 6.7 11.2 89 1.0 SSW 35 46 19 25 1009.4 1009.4 0.8
24/04:30am 13.1 4.4 11.3 89 1.0 SSW 48 61 26 33 1009.3 1009.3 0.8
24/04:00am 13.1 6.6 11.8 92 0.7 SW 37 46 20 25 1009.6 1009.6 0.8
24/03:30am 13.4 6.0 12.3 93 0.6 SSW 43 52 23 28 1009.6 1009.6 0.8
24/03:00am 13.3 5.2 12.0 92 0.7 SSW 46 57 25 31 1009.4 1009.4 0.8
24/02:30am 13.2 4.4 12.1 93 0.6 SSW 50 63 27 34 1009.8 1009.8 0.8
24/02:00am 13.1 3.5 12.2 94 0.5 SSW 54 65 29 35 1010.0 1010.0 0.6
24/01:30am 13.8 4.8 12.7 93 0.6 SSW 52 61 28 33 1010.2 1010.2 0.4
24/01:00am 14.3 7.8 13.0 92 0.7 SSW 39 61 21 33 1010.3 1010.3 0.4
24/12:56am 14.2 9.0 12.8 91 0.8 SW 32 61 17 33 1010.3 1010.3 0.4
24/12:55am 14.2 9.7 12.6 90 0.9 SW 28 50 15 27 1010.4 1010.4 0.4
24/12:30am 16.6 14.8 15.5 93 0.6 N 19 30 10 16 1010.3 1010.3 0.4
24/12:00am 16.8 12.9 15.5 92 0.8 NNE 30 39 16 21 1010.3 1010.3 0.4
 
Date/Time
EST
Temp
°C
App
Temp
°C
Dew
Point
°C
Rel
Hum
%
Delta-T
°C
Wind Press
QNH
hPa
Press
MSL
hPa
Rain since
9am
mm
Dir  Spd
km/h
Gust
km/h
Spd
kts
Gust
kts
23/11:30pm 16.9 11.0 15.6 92 0.8 NNE 41 46 22 25 1010.6 1010.6 0.4
23/11:00pm 16.9 11.4 15.8 93 0.6 NNE 39 54 21 29 1010.7 1010.7 0.4
23/10:30pm 16.9 11.0 15.6 92 0.8 NNE 41 50 22 27 1010.9 1010.9 0.4
23/10:00pm 16.9 10.4 15.6 92 0.8 NNE 44 54 24 29 1011.4 1011.4 0.4
23/09:30pm 16.8 11.1 15.2 90 0.9 NNE 39 50 21 27 1011.8 1011.8 0.4
23/09:00pm 16.7 9.8 14.5 87 1.3 NNE 44 54 24 29 1011.7 1011.7 0.4
23/08:30pm 16.8 9.6 14.8 88 1.2 NNE 46 54 25 29 1011.9 1011.9 0.4
23/08:00pm 16.9 10.3 15.4 91 0.9 NNE 44 56 24 30 1011.9 1011.9 0.4
23/07:30pm 17.0 10.4 15.3 90 1.0 NNE 44 57 24 31 1011.9 1011.9 0.4
23/07:00pm 17.0 10.0 15.2 89 1.0 NNE 46 56 25 30 1012.1 1012.1 0.4
23/06:30pm 17.0 11.9 15.7 92 0.8 NNE 37 44 20 24 1012.0 1012.0 0.4
23/06:00pm 17.1 10.9 15.8 92 0.8 NNE 43 52 23 28 1011.9 1011.9 0.4
23/05:30pm 17.2 10.8 15.5 90 1.0 NNE 43 54 23 29 1011.9 1011.9 0.4
23/05:00pm 17.1 10.7 15.4 90 1.0 NNE 43 52 23 28 1012.0 1012.0 0.4
23/04:30pm 17.2 11.2 15.4 89 1.1 NNE 41 52 22 28 1011.9 1011.9 0.4
23/04:00pm 17.1 10.7 15.3 89 1.1 NNE 43 52 23 28 1012.0 1012.0 0.2

Other formats

Comma delimited format used in spreadsheet applications
http://www.bom.gov.au/fwo/IDN60801/IDN60801.94939.axf

JavaScript Object Notation format (JSON) in row-major order
http://www.bom.gov.au/fwo/IDN60801/IDN60801.94939.json

Data quality

Most of these data are generated automatically and are frequently updated. Quality checks on data are not normally performed. It is possible for incorrect values to appear. Refer to information at About Latest Weather Observations and please check the disclaimer before using these data.